sensor_id;sensor_type;location;lat;lon;timestamp;P1;durP1;ratioP1;P2;durP2;ratioP2
11187;SDS011;5650;52.700;7.306;2023-09-18T00:00:46;18.30;;;16.70;;
11187;SDS011;5650;52.700;7.306;2023-09-18T00:03:15;20.13;;;18.25;;
11187;SDS011;5650;52.700;7.306;2023-09-18T00:05:43;21.33;;;19.38;;
11187;SDS011;5650;52.700;7.306;2023-09-18T00:08:13;20.83;;;18.85;;
11187;SDS011;5650;52.700;7.306;2023-09-18T00:10:46;22.15;;;19.40;;
11187;SDS011;5650;52.700;7.306;2023-09-18T00:13:16;19.50;;;17.55;;
11187;SDS011;5650;52.700;7.306;2023-09-18T00:15:46;20.40;;;18.20;;
11187;SDS011;5650;52.700;7.306;2023-09-18T00:18:14;19.95;;;17.95;;
11187;SDS011;5650;52.700;7.306;2023-09-18T00:20:52;19.30;;;17.60;;
11187;SDS011;5650;52.700;7.306;2023-09-18T00:23:22;21.00;;;19.10;;
11187;SDS011;5650;52.700;7.306;2023-09-18T00:25:49;20.52;;;18.35;;
11187;SDS011;5650;52.700;7.306;2023-09-18T00:28:21;19.02;;;17.27;;
11187;SDS011;5650;52.700;7.306;2023-09-18T00:30:49;21.45;;;19.23;;
11187;SDS011;5650;52.700;7.306;2023-09-18T00:33:16;21.48;;;19.48;;
11187;SDS011;5650;52.700;7.306;2023-09-18T00:35:50;22.13;;;19.92;;
11187;SDS011;5650;52.700;7.306;2023-09-18T00:38:18;21.67;;;19.58;;
11187;SDS011;5650;52.700;7.306;2023-09-18T00:40:48;22.83;;;20.75;;
11187;SDS011;5650;52.700;7.306;2023-09-18T00:45:55;21.42;;;19.45;;
11187;SDS011;5650;52.700;7.306;2023-09-18T00:48:25;19.55;;;17.58;;
11187;SDS011;5650;52.700;7.306;2023-09-18T00:51:06;19.00;;;17.33;;
11187;SDS011;5650;52.700;7.306;2023-09-18T00:53:38;18.65;;;16.95;;
11187;SDS011;5650;52.700;7.306;2023-09-18T00:56:09;18.48;;;16.77;;
11187;SDS011;5650;52.700;7.306;2023-09-18T00:58:38;19.00;;;17.17;;
11187;SDS011;5650;52.700;7.306;2023-09-18T01:01:06;20.52;;;16.83;;
11187;SDS011;5650;52.700;7.306;2023-09-18T01:03:37;18.50;;;16.55;;
11187;SDS011;5650;52.700;7.306;2023-09-18T01:06:04;17.65;;;15.55;;
11187;SDS011;5650;52.700;7.306;2023-09-18T01:08:31;17.38;;;15.65;;
11187;SDS011;5650;52.700;7.306;2023-09-18T01:11:04;17.08;;;15.23;;
11187;SDS011;5650;52.700;7.306;2023-09-18T01:13:45;16.17;;;13.48;;
11187;SDS011;5650;52.700;7.306;2023-09-18T01:16:17;17.27;;;14.18;;
11187;SDS011;5650;52.700;7.306;2023-09-18T01:18:53;16.02;;;14.35;;
11187;SDS011;5650;52.700;7.306;2023-09-18T01:21:27;14.75;;;13.25;;
11187;SDS011;5650;52.700;7.306;2023-09-18T01:23:58;15.07;;;13.55;;
11187;SDS011;5650;52.700;7.306;2023-09-18T01:26:34;15.82;;;14.30;;
11187;SDS011;5650;52.700;7.306;2023-09-18T01:29:07;14.93;;;13.52;;
11187;SDS011;5650;52.700;7.306;2023-09-18T01:31:41;16.95;;;12.90;;
11187;SDS011;5650;52.700;7.306;2023-09-18T01:34:13;16.15;;;13.00;;
11187;SDS011;5650;52.700;7.306;2023-09-18T01:36:44;13.93;;;12.50;;
11187;SDS011;5650;52.700;7.306;2023-09-18T01:39:15;13.93;;;12.63;;
11187;SDS011;5650;52.700;7.306;2023-09-18T01:41:52;18.13;;;13.00;;
11187;SDS011;5650;52.700;7.306;2023-09-18T01:44:19;13.43;;;12.13;;
11187;SDS011;5650;52.700;7.306;2023-09-18T01:46:47;14.30;;;12.95;;
11187;SDS011;5650;52.700;7.306;2023-09-18T01:49:19;14.80;;;12.60;;
11187;SDS011;5650;52.700;7.306;2023-09-18T01:51:56;14.00;;;12.32;;
11187;SDS011;5650;52.700;7.306;2023-09-18T01:54:27;14.88;;;12.82;;
11187;SDS011;5650;52.700;7.306;2023-09-18T01:56:54;14.60;;;13.10;;
11187;SDS011;5650;52.700;7.306;2023-09-18T01:59:24;14.35;;;12.82;;
11187;SDS011;5650;52.700;7.306;2023-09-18T02:02:08;14.77;;;13.25;;
11187;SDS011;5650;52.700;7.306;2023-09-18T02:04:39;13.70;;;12.35;;
11187;SDS011;5650;52.700;7.306;2023-09-18T02:07:10;14.45;;;13.02;;
11187;SDS011;5650;52.700;7.306;2023-09-18T02:09:38;13.85;;;12.55;;
11187;SDS011;5650;52.700;7.306;2023-09-18T02:12:08;13.98;;;12.43;;
11187;SDS011;5650;52.700;7.306;2023-09-18T02:14:39;13.00;;;11.65;;
11187;SDS011;5650;52.700;7.306;2023-09-18T02:17:12;13.95;;;11.77;;
11187;SDS011;5650;52.700;7.306;2023-09-18T02:19:39;13.10;;;11.75;;
11187;SDS011;5650;52.700;7.306;2023-09-18T02:22:06;14.35;;;12.73;;
11187;SDS011;5650;52.700;7.306;2023-09-18T02:24:34;16.20;;;12.57;;
11187;SDS011;5650;52.700;7.306;2023-09-18T02:27:06;15.90;;;12.70;;
11187;SDS011;5650;52.700;7.306;2023-09-18T02:29:36;13.80;;;12.40;;
11187;SDS011;5650;52.700;7.306;2023-09-18T02:32:06;12.57;;;11.38;;
11187;SDS011;5650;52.700;7.306;2023-09-18T02:34:35;13.38;;;12.05;;
11187;SDS011;5650;52.700;7.306;2023-09-18T02:37:11;13.48;;;12.07;;
11187;SDS011;5650;52.700;7.306;2023-09-18T02:39:43;13.68;;;12.30;;
11187;SDS011;5650;52.700;7.306;2023-09-18T02:42:10;13.05;;;11.80;;
11187;SDS011;5650;52.700;7.306;2023-09-18T02:44:37;14.25;;;12.15;;
11187;SDS011;5650;52.700;7.306;2023-09-18T02:47:04;12.40;;;11.00;;
11187;SDS011;5650;52.700;7.306;2023-09-18T02:49:31;14.48;;;11.65;;
11187;SDS011;5650;52.700;7.306;2023-09-18T02:52:08;13.07;;;11.73;;
11187;SDS011;5650;52.700;7.306;2023-09-18T02:54:38;16.08;;;12.50;;
11187;SDS011;5650;52.700;7.306;2023-09-18T02:57:07;13.52;;;12.32;;
11187;SDS011;5650;52.700;7.306;2023-09-18T02:59:34;13.05;;;11.85;;
11187;SDS011;5650;52.700;7.306;2023-09-18T03:02:02;12.15;;;11.05;;
11187;SDS011;5650;52.700;7.306;2023-09-18T03:04:37;12.70;;;11.30;;
11187;SDS011;5650;52.700;7.306;2023-09-18T03:07:04;11.25;;;10.15;;
11187;SDS011;5650;52.700;7.306;2023-09-18T03:09:34;13.80;;;11.40;;
11187;SDS011;5650;52.700;7.306;2023-09-18T03:12:16;12.63;;;11.27;;
11187;SDS011;5650;52.700;7.306;2023-09-18T03:14:43;10.93;;;9.90;;
11187;SDS011;5650;52.700;7.306;2023-09-18T03:17:12;11.70;;;10.50;;
11187;SDS011;5650;52.700;7.306;2023-09-18T03:19:39;13.35;;;10.75;;
11187;SDS011;5650;52.700;7.306;2023-09-18T03:22:06;11.43;;;10.43;;
11187;SDS011;5650;52.700;7.306;2023-09-18T03:24:36;12.68;;;10.48;;
11187;SDS011;5650;52.700;7.306;2023-09-18T03:27:04;13.80;;;10.55;;
11187;SDS011;5650;52.700;7.306;2023-09-18T03:29:35;12.05;;;10.73;;
11187;SDS011;5650;52.700;7.306;2023-09-18T03:32:08;13.93;;;10.60;;
11187;SDS011;5650;52.700;7.306;2023-09-18T03:34:40;11.43;;;10.23;;
11187;SDS011;5650;52.700;7.306;2023-09-18T03:37:07;18.98;;;10.88;;
11187;SDS011;5650;52.700;7.306;2023-09-18T03:39:40;12.63;;;11.40;;
11187;SDS011;5650;52.700;7.306;2023-09-18T03:42:08;13.85;;;10.30;;
11187;SDS011;5650;52.700;7.306;2023-09-18T03:44:40;12.07;;;10.57;;
11187;SDS011;5650;52.700;7.306;2023-09-18T03:47:13;12.35;;;10.80;;
11187;SDS011;5650;52.700;7.306;2023-09-18T03:49:40;16.20;;;11.18;;
11187;SDS011;5650;52.700;7.306;2023-09-18T03:52:13;15.60;;;10.88;;
11187;SDS011;5650;52.700;7.306;2023-09-18T03:54:46;14.23;;;11.02;;
11187;SDS011;5650;52.700;7.306;2023-09-18T03:57:13;13.25;;;11.68;;
11187;SDS011;5650;52.700;7.306;2023-09-18T03:59:47;12.65;;;10.60;;
11187;SDS011;5650;52.700;7.306;2023-09-18T04:02:14;11.38;;;10.27;;
11187;SDS011;5650;52.700;7.306;2023-09-18T04:04:45;11.90;;;10.65;;
11187;SDS011;5650;52.700;7.306;2023-09-18T04:07:21;12.05;;;10.70;;
11187;SDS011;5650;52.700;7.306;2023-09-18T04:09:54;12.40;;;11.20;;
11187;SDS011;5650;52.700;7.306;2023-09-18T04:15:17;14.00;;;10.43;;
11187;SDS011;5650;52.700;7.306;2023-09-18T04:17:44;15.45;;;11.52;;
11187;SDS011;5650;52.700;7.306;2023-09-18T04:20:11;13.57;;;11.15;;
11187;SDS011;5650;52.700;7.306;2023-09-18T04:22:42;14.10;;;11.77;;
11187;SDS011;5650;52.700;7.306;2023-09-18T04:25:10;13.65;;;11.30;;
11187;SDS011;5650;52.700;7.306;2023-09-18T04:27:38;16.85;;;11.15;;
11187;SDS011;5650;52.700;7.306;2023-09-18T04:30:06;15.18;;;11.68;;
11187;SDS011;5650;52.700;7.306;2023-09-18T04:32:37;17.17;;;11.35;;
11187;SDS011;5650;52.700;7.306;2023-09-18T04:35:05;11.43;;;10.07;;
11187;SDS011;5650;52.700;7.306;2023-09-18T04:37:35;12.82;;;10.35;;
11187;SDS011;5650;52.700;7.306;2023-09-18T04:40:06;14.05;;;10.88;;
11187;SDS011;5650;52.700;7.306;2023-09-18T04:42:39;11.73;;;10.43;;
11187;SDS011;5650;52.700;7.306;2023-09-18T04:45:06;11.43;;;10.27;;
11187;SDS011;5650;52.700;7.306;2023-09-18T04:47:34;11.95;;;10.65;;
11187;SDS011;5650;52.700;7.306;2023-09-18T04:50:05;13.05;;;9.88;;
11187;SDS011;5650;52.700;7.306;2023-09-18T04:52:37;17.25;;;11.15;;
11187;SDS011;5650;52.700;7.306;2023-09-18T04:55:12;15.65;;;9.32;;
11187;SDS011;5650;52.700;7.306;2023-09-18T04:57:40;17.65;;;9.85;;
11187;SDS011;5650;52.700;7.306;2023-09-18T05:00:09;10.60;;;8.93;;
11187;SDS011;5650;52.700;7.306;2023-09-18T05:02:40;17.10;;;10.63;;
11187;SDS011;5650;52.700;7.306;2023-09-18T05:05:08;14.05;;;9.82;;
11187;SDS011;5650;52.700;7.306;2023-09-18T05:07:37;12.77;;;8.90;;
11187;SDS011;5650;52.700;7.306;2023-09-18T05:10:10;11.55;;;8.40;;
11187;SDS011;5650;52.700;7.306;2023-09-18T05:12:46;12.05;;;8.50;;
11187;SDS011;5650;52.700;7.306;2023-09-18T05:15:15;12.63;;;8.02;;
11187;SDS011;5650;52.700;7.306;2023-09-18T05:17:45;12.55;;;8.00;;
11187;SDS011;5650;52.700;7.306;2023-09-18T05:20:17;8.38;;;7.05;;
11187;SDS011;5650;52.700;7.306;2023-09-18T05:22:51;12.13;;;7.43;;
11187;SDS011;5650;52.700;7.306;2023-09-18T05:25:19;16.33;;;7.85;;
11187;SDS011;5650;52.700;7.306;2023-09-18T05:27:54;16.23;;;8.38;;
11187;SDS011;5650;52.700;7.306;2023-09-18T05:30:25;11.60;;;7.22;;
11187;SDS011;5650;52.700;7.306;2023-09-18T05:32:56;11.50;;;7.40;;
11187;SDS011;5650;52.700;7.306;2023-09-18T05:35:29;11.98;;;7.13;;
11187;SDS011;5650;52.700;7.306;2023-09-18T05:38:05;9.98;;;6.72;;
11187;SDS011;5650;52.700;7.306;2023-09-18T05:40:33;8.95;;;7.07;;
11187;SDS011;5650;52.700;7.306;2023-09-18T05:43:04;10.13;;;7.07;;
11187;SDS011;5650;52.700;7.306;2023-09-18T05:45:37;15.93;;;7.72;;
11187;SDS011;5650;52.700;7.306;2023-09-18T05:48:06;10.43;;;7.10;;
11187;SDS011;5650;52.700;7.306;2023-09-18T05:50:38;14.07;;;7.60;;
11187;SDS011;5650;52.700;7.306;2023-09-18T05:53:06;13.50;;;7.30;;
11187;SDS011;5650;52.700;7.306;2023-09-18T05:55:36;10.93;;;6.50;;
11187;SDS011;5650;52.700;7.306;2023-09-18T05:58:04;14.77;;;7.22;;
11187;SDS011;5650;52.700;7.306;2023-09-18T06:00:34;11.38;;;6.65;;
11187;SDS011;5650;52.700;7.306;2023-09-18T06:03:04;6.85;;;6.00;;
11187;SDS011;5650;52.700;7.306;2023-09-18T06:05:37;7.90;;;6.70;;
11187;SDS011;5650;52.700;7.306;2023-09-18T06:08:07;13.73;;;6.45;;
11187;SDS011;5650;52.700;7.306;2023-09-18T06:10:37;10.60;;;6.25;;
11187;SDS011;5650;52.700;7.306;2023-09-18T06:13:07;8.93;;;6.55;;
11187;SDS011;5650;52.700;7.306;2023-09-18T06:15:40;12.90;;;6.07;;
11187;SDS011;5650;52.700;7.306;2023-09-18T06:18:09;9.70;;;6.53;;
11187;SDS011;5650;52.700;7.306;2023-09-18T06:20:36;10.02;;;5.68;;
11187;SDS011;5650;52.700;7.306;2023-09-18T06:23:06;16.08;;;6.50;;
11187;SDS011;5650;52.700;7.306;2023-09-18T06:25:35;9.52;;;6.13;;
11187;SDS011;5650;52.700;7.306;2023-09-18T06:28:02;12.40;;;6.20;;
11187;SDS011;5650;52.700;7.306;2023-09-18T06:30:30;10.20;;;5.72;;
11187;SDS011;5650;52.700;7.306;2023-09-18T06:33:05;10.15;;;6.70;;
11187;SDS011;5650;52.700;7.306;2023-09-18T06:35:37;10.32;;;6.22;;
11187;SDS011;5650;52.700;7.306;2023-09-18T06:38:05;12.93;;;7.22;;
11187;SDS011;5650;52.700;7.306;2023-09-18T06:40:32;16.42;;;6.95;;
11187;SDS011;5650;52.700;7.306;2023-09-18T06:42:59;10.82;;;6.93;;
11187;SDS011;5650;52.700;7.306;2023-09-18T06:45:27;9.93;;;6.85;;
11187;SDS011;5650;52.700;7.306;2023-09-18T06:47:54;13.20;;;6.45;;
11187;SDS011;5650;52.700;7.306;2023-09-18T06:50:22;11.27;;;7.03;;
11187;SDS011;5650;52.700;7.306;2023-09-18T06:52:51;12.70;;;6.47;;
11187;SDS011;5650;52.700;7.306;2023-09-18T06:55:18;13.23;;;6.88;;
11187;SDS011;5650;52.700;7.306;2023-09-18T06:57:53;12.70;;;7.05;;
11187;SDS011;5650;52.700;7.306;2023-09-18T07:00:20;12.82;;;7.30;;
11187;SDS011;5650;52.700;7.306;2023-09-18T07:02:47;10.77;;;6.85;;
11187;SDS011;5650;52.700;7.306;2023-09-18T07:05:15;10.55;;;6.88;;
11187;SDS011;5650;52.700;7.306;2023-09-18T07:07:42;11.98;;;6.85;;
11187;SDS011;5650;52.700;7.306;2023-09-18T07:10:11;13.55;;;7.55;;
11187;SDS011;5650;52.700;7.306;2023-09-18T07:12:38;17.80;;;7.65;;
11187;SDS011;5650;52.700;7.306;2023-09-18T07:15:06;10.82;;;6.63;;
11187;SDS011;5650;52.700;7.306;2023-09-18T07:17:39;10.73;;;6.28;;
11187;SDS011;5650;52.700;7.306;2023-09-18T07:20:07;11.77;;;6.63;;
11187;SDS011;5650;52.700;7.306;2023-09-18T07:22:39;13.45;;;6.82;;
11187;SDS011;5650;52.700;7.306;2023-09-18T07:25:06;11.13;;;6.82;;
11187;SDS011;5650;52.700;7.306;2023-09-18T07:27:35;13.73;;;7.35;;
11187;SDS011;5650;52.700;7.306;2023-09-18T07:30:08;7.18;;;5.78;;
11187;SDS011;5650;52.700;7.306;2023-09-18T07:32:36;11.45;;;6.50;;
11187;SDS011;5650;52.700;7.306;2023-09-18T07:35:10;10.57;;;6.70;;
11187;SDS011;5650;52.700;7.306;2023-09-18T07:37:38;10.93;;;5.88;;
11187;SDS011;5650;52.700;7.306;2023-09-18T07:40:08;10.32;;;6.00;;
11187;SDS011;5650;52.700;7.306;2023-09-18T07:42:40;12.25;;;6.30;;
11187;SDS011;5650;52.700;7.306;2023-09-18T07:45:09;11.13;;;5.88;;
11187;SDS011;5650;52.700;7.306;2023-09-18T07:47:36;10.60;;;6.43;;
11187;SDS011;5650;52.700;7.306;2023-09-18T07:50:05;14.20;;;6.68;;
11187;SDS011;5650;52.700;7.306;2023-09-18T07:52:33;12.20;;;6.68;;
11187;SDS011;5650;52.700;7.306;2023-09-18T07:55:03;10.30;;;5.93;;
11187;SDS011;5650;52.700;7.306;2023-09-18T07:57:31;8.52;;;6.13;;
11187;SDS011;5650;52.700;7.306;2023-09-18T08:00:07;13.35;;;5.97;;
11187;SDS011;5650;52.700;7.306;2023-09-18T08:02:47;11.43;;;5.50;;
11187;SDS011;5650;52.700;7.306;2023-09-18T08:05:21;9.30;;;5.43;;
11187;SDS011;5650;52.700;7.306;2023-09-18T08:07:52;10.13;;;5.88;;
11187;SDS011;5650;52.700;7.306;2023-09-18T08:10:21;12.40;;;6.18;;
11187;SDS011;5650;52.700;7.306;2023-09-18T08:12:50;11.32;;;5.97;;
11187;SDS011;5650;52.700;7.306;2023-09-18T08:15:20;9.30;;;5.82;;
11187;SDS011;5650;52.700;7.306;2023-09-18T08:17:51;11.00;;;5.75;;
11187;SDS011;5650;52.700;7.306;2023-09-18T08:20:18;11.65;;;5.78;;
11187;SDS011;5650;52.700;7.306;2023-09-18T08:22:45;12.45;;;5.40;;
11187;SDS011;5650;52.700;7.306;2023-09-18T08:25:13;9.15;;;4.90;;
11187;SDS011;5650;52.700;7.306;2023-09-18T08:27:41;12.43;;;5.57;;
11187;SDS011;5650;52.700;7.306;2023-09-18T08:30:09;13.43;;;5.53;;
11187;SDS011;5650;52.700;7.306;2023-09-18T08:32:39;9.40;;;5.40;;
11187;SDS011;5650;52.700;7.306;2023-09-18T08:35:09;11.45;;;5.68;;
11187;SDS011;5650;52.700;7.306;2023-09-18T08:37:39;9.02;;;5.18;;
11187;SDS011;5650;52.700;7.306;2023-09-18T08:40:07;11.23;;;5.85;;
11187;SDS011;5650;52.700;7.306;2023-09-18T08:42:39;13.05;;;5.38;;
11187;SDS011;5650;52.700;7.306;2023-09-18T08:45:09;13.02;;;5.35;;
11187;SDS011;5650;52.700;7.306;2023-09-18T08:47:55;10.05;;;5.30;;
11187;SDS011;5650;52.700;7.306;2023-09-18T08:50:24;11.52;;;5.65;;
11187;SDS011;5650;52.700;7.306;2023-09-18T08:52:54;10.35;;;5.38;;
11187;SDS011;5650;52.700;7.306;2023-09-18T08:55:25;10.48;;;5.32;;
11187;SDS011;5650;52.700;7.306;2023-09-18T08:57:59;12.25;;;5.18;;
11187;SDS011;5650;52.700;7.306;2023-09-18T09:00:33;12.60;;;4.82;;
11187;SDS011;5650;52.700;7.306;2023-09-18T09:03:04;10.40;;;4.68;;
11187;SDS011;5650;52.700;7.306;2023-09-18T09:05:34;10.77;;;4.60;;
11187;SDS011;5650;52.700;7.306;2023-09-18T09:08:04;9.95;;;4.70;;
11187;SDS011;5650;52.700;7.306;2023-09-18T09:10:34;10.52;;;4.95;;
11187;SDS011;5650;52.700;7.306;2023-09-18T09:13:02;10.80;;;4.53;;
11187;SDS011;5650;52.700;7.306;2023-09-18T09:15:43;12.75;;;4.20;;
11187;SDS011;5650;52.700;7.306;2023-09-18T09:18:15;10.93;;;4.43;;
11187;SDS011;5650;52.700;7.306;2023-09-18T09:20:53;11.02;;;4.43;;
11187;SDS011;5650;52.700;7.306;2023-09-18T09:23:23;13.13;;;5.53;;
11187;SDS011;5650;52.700;7.306;2023-09-18T09:25:50;10.50;;;4.20;;
11187;SDS011;5650;52.700;7.306;2023-09-18T09:28:28;11.45;;;4.20;;
11187;SDS011;5650;52.700;7.306;2023-09-18T09:31:02;7.50;;;3.63;;
11187;SDS011;5650;52.700;7.306;2023-09-18T09:33:33;11.18;;;3.70;;
11187;SDS011;5650;52.700;7.306;2023-09-18T09:36:06;9.00;;;3.60;;
11187;SDS011;5650;52.700;7.306;2023-09-18T09:38:39;8.13;;;3.50;;
11187;SDS011;5650;52.700;7.306;2023-09-18T09:41:09;11.40;;;3.70;;
11187;SDS011;5650;52.700;7.306;2023-09-18T09:43:41;8.77;;;3.38;;
11187;SDS011;5650;52.700;7.306;2023-09-18T09:46:16;10.50;;;3.65;;
11187;SDS011;5650;52.700;7.306;2023-09-18T09:49:01;11.98;;;3.83;;
11187;SDS011;5650;52.700;7.306;2023-09-18T09:51:30;6.32;;;2.65;;
11187;SDS011;5650;52.700;7.306;2023-09-18T09:53:57;9.25;;;3.08;;
11187;SDS011;5650;52.700;7.306;2023-09-18T09:56:44;5.68;;;2.97;;
11187;SDS011;5650;52.700;7.306;2023-09-18T09:59:19;5.93;;;3.00;;
11187;SDS011;5650;52.700;7.306;2023-09-18T10:01:46;6.10;;;2.50;;
11187;SDS011;5650;52.700;7.306;2023-09-18T10:04:18;5.10;;;2.65;;
11187;SDS011;5650;52.700;7.306;2023-09-18T10:06:48;8.18;;;2.95;;
11187;SDS011;5650;52.700;7.306;2023-09-18T10:09:19;5.47;;;2.60;;
11187;SDS011;5650;52.700;7.306;2023-09-18T10:11:49;7.15;;;2.70;;
11187;SDS011;5650;52.700;7.306;2023-09-18T10:14:31;4.60;;;2.10;;
11187;SDS011;5650;52.700;7.306;2023-09-18T10:17:02;6.50;;;2.45;;
11187;SDS011;5650;52.700;7.306;2023-09-18T10:19:43;5.30;;;2.53;;
11187;SDS011;5650;52.700;7.306;2023-09-18T10:22:30;4.93;;;2.40;;
11187;SDS011;5650;52.700;7.306;2023-09-18T10:25:04;4.85;;;2.15;;
11187;SDS011;5650;52.700;7.306;2023-09-18T10:27:35;8.43;;;2.70;;
11187;SDS011;5650;52.700;7.306;2023-09-18T10:30:04;6.82;;;2.17;;
11187;SDS011;5650;52.700;7.306;2023-09-18T10:32:36;4.80;;;2.08;;
11187;SDS011;5650;52.700;7.306;2023-09-18T10:35:09;3.53;;;1.95;;
11187;SDS011;5650;52.700;7.306;2023-09-18T10:37:37;4.72;;;2.17;;
11187;SDS011;5650;52.700;7.306;2023-09-18T10:40:06;5.15;;;2.20;;
11187;SDS011;5650;52.700;7.306;2023-09-18T10:42:35;5.75;;;2.40;;
11187;SDS011;5650;52.700;7.306;2023-09-18T10:45:04;4.50;;;2.00;;
11187;SDS011;5650;52.700;7.306;2023-09-18T10:47:35;7.65;;;2.00;;
11187;SDS011;5650;52.700;7.306;2023-09-18T10:50:08;7.15;;;2.40;;
11187;SDS011;5650;52.700;7.306;2023-09-18T10:52:38;4.28;;;2.10;;
11187;SDS011;5650;52.700;7.306;2023-09-18T10:55:13;5.72;;;2.17;;
11187;SDS011;5650;52.700;7.306;2023-09-18T10:57:49;5.45;;;2.42;;
11187;SDS011;5650;52.700;7.306;2023-09-18T11:00:20;4.65;;;2.20;;
11187;SDS011;5650;52.700;7.306;2023-09-18T11:02:51;3.30;;;1.98;;
11187;SDS011;5650;52.700;7.306;2023-09-18T11:05:32;4.53;;;1.80;;
11187;SDS011;5650;52.700;7.306;2023-09-18T11:10:56;5.20;;;2.15;;
11187;SDS011;5650;52.700;7.306;2023-09-18T11:13:34;5.10;;;1.80;;
11187;SDS011;5650;52.700;7.306;2023-09-18T11:16:18;5.10;;;1.55;;
11187;SDS011;5650;52.700;7.306;2023-09-18T11:19:13;6.25;;;1.50;;
11187;SDS011;5650;52.700;7.306;2023-09-18T11:21:48;5.10;;;1.75;;
11187;SDS011;5650;52.700;7.306;2023-09-18T11:24:38;5.13;;;1.92;;
11187;SDS011;5650;52.700;7.306;2023-09-18T11:27:05;5.38;;;1.45;;
11187;SDS011;5650;52.700;7.306;2023-09-18T11:29:36;2.20;;;1.33;;
11187;SDS011;5650;52.700;7.306;2023-09-18T11:32:06;5.63;;;1.20;;
11187;SDS011;5650;52.700;7.306;2023-09-18T11:34:34;4.85;;;1.48;;
11187;SDS011;5650;52.700;7.306;2023-09-18T11:37:18;4.93;;;1.75;;
11187;SDS011;5650;52.700;7.306;2023-09-18T11:39:46;5.07;;;1.65;;
11187;SDS011;5650;52.700;7.306;2023-09-18T11:42:21;4.43;;;1.65;;
11187;SDS011;5650;52.700;7.306;2023-09-18T11:44:50;4.97;;;1.92;;
11187;SDS011;5650;52.700;7.306;2023-09-18T11:47:18;3.13;;;1.45;;
11187;SDS011;5650;52.700;7.306;2023-09-18T11:49:50;7.10;;;1.70;;
11187;SDS011;5650;52.700;7.306;2023-09-18T11:52:23;7.50;;;1.65;;
11187;SDS011;5650;52.700;7.306;2023-09-18T11:54:51;4.78;;;1.30;;
11187;SDS011;5650;52.700;7.306;2023-09-18T11:57:22;4.22;;;1.70;;
11187;SDS011;5650;52.700;7.306;2023-09-18T11:59:53;3.80;;;1.60;;
11187;SDS011;5650;52.700;7.306;2023-09-18T12:02:25;2.38;;;1.35;;
11187;SDS011;5650;52.700;7.306;2023-09-18T12:05:00;7.20;;;1.73;;
11187;SDS011;5650;52.700;7.306;2023-09-18T12:07:36;3.10;;;1.60;;
11187;SDS011;5650;52.700;7.306;2023-09-18T12:10:04;2.90;;;1.50;;
11187;SDS011;5650;52.700;7.306;2023-09-18T12:12:38;5.72;;;1.65;;
11187;SDS011;5650;52.700;7.306;2023-09-18T12:15:18;3.58;;;1.50;;
11187;SDS011;5650;52.700;7.306;2023-09-18T12:17:53;3.45;;;1.50;;
11187;SDS011;5650;52.700;7.306;2023-09-18T12:20:21;5.35;;;1.40;;
11187;SDS011;5650;52.700;7.306;2023-09-18T12:22:50;3.17;;;1.50;;
11187;SDS011;5650;52.700;7.306;2023-09-18T12:25:18;3.50;;;1.17;;
11187;SDS011;5650;52.700;7.306;2023-09-18T12:27:50;5.93;;;1.60;;
11187;SDS011;5650;52.700;7.306;2023-09-18T12:30:18;3.30;;;1.50;;
11187;SDS011;5650;52.700;7.306;2023-09-18T12:32:53;3.72;;;1.40;;
11187;SDS011;5650;52.700;7.306;2023-09-18T12:35:28;5.70;;;1.40;;
11187;SDS011;5650;52.700;7.306;2023-09-18T12:37:57;4.75;;;1.40;;
11187;SDS011;5650;52.700;7.306;2023-09-18T12:40:25;5.82;;;1.40;;
11187;SDS011;5650;52.700;7.306;2023-09-18T12:42:54;3.15;;;1.30;;
11187;SDS011;5650;52.700;7.306;2023-09-18T12:45:23;2.95;;;1.38;;
11187;SDS011;5650;52.700;7.306;2023-09-18T12:47:51;5.35;;;1.33;;
11187;SDS011;5650;52.700;7.306;2023-09-18T12:50:20;3.50;;;1.30;;
11187;SDS011;5650;52.700;7.306;2023-09-18T12:52:51;3.50;;;1.38;;
11187;SDS011;5650;52.700;7.306;2023-09-18T12:55:24;2.67;;;1.60;;
11187;SDS011;5650;52.700;7.306;2023-09-18T12:57:52;1.80;;;1.58;;
11187;SDS011;5650;52.700;7.306;2023-09-18T13:00:26;3.00;;;1.42;;
11187;SDS011;5650;52.700;7.306;2023-09-18T13:02:54;4.85;;;1.60;;
11187;SDS011;5650;52.700;7.306;2023-09-18T13:05:21;6.82;;;1.83;;
11187;SDS011;5650;52.700;7.306;2023-09-18T13:07:51;3.80;;;1.40;;
11187;SDS011;5650;52.700;7.306;2023-09-18T13:10:19;5.22;;;1.85;;
11187;SDS011;5650;52.700;7.306;2023-09-18T13:12:49;4.57;;;1.50;;
11187;SDS011;5650;52.700;7.306;2023-09-18T13:15:24;6.30;;;1.60;;
11187;SDS011;5650;52.700;7.306;2023-09-18T13:17:53;2.85;;;1.48;;
11187;SDS011;5650;52.700;7.306;2023-09-18T13:20:21;6.03;;;1.52;;
11187;SDS011;5650;52.700;7.306;2023-09-18T13:22:54;2.17;;;1.50;;
11187;SDS011;5650;52.700;7.306;2023-09-18T13:25:23;4.00;;;1.60;;
11187;SDS011;5650;52.700;7.306;2023-09-18T13:27:53;3.90;;;1.80;;
11187;SDS011;5650;52.700;7.306;2023-09-18T13:30:21;3.45;;;1.65;;
11187;SDS011;5650;52.700;7.306;2023-09-18T13:32:49;4.20;;;1.63;;
11187;SDS011;5650;52.700;7.306;2023-09-18T13:35:17;5.18;;;2.08;;
11187;SDS011;5650;52.700;7.306;2023-09-18T13:37:45;4.68;;;1.90;;
11187;SDS011;5650;52.700;7.306;2023-09-18T13:40:13;5.72;;;2.00;;
11187;SDS011;5650;52.700;7.306;2023-09-18T13:42:40;3.33;;;2.05;;
11187;SDS011;5650;52.700;7.306;2023-09-18T13:45:09;2.72;;;1.98;;
11187;SDS011;5650;52.700;7.306;2023-09-18T13:47:36;5.18;;;1.75;;
11187;SDS011;5650;52.700;7.306;2023-09-18T13:50:04;3.85;;;2.00;;
11187;SDS011;5650;52.700;7.306;2023-09-18T13:52:32;4.80;;;1.90;;
11187;SDS011;5650;52.700;7.306;2023-09-18T13:55:08;8.50;;;2.10;;
11187;SDS011;5650;52.700;7.306;2023-09-18T13:57:41;4.32;;;2.03;;
11187;SDS011;5650;52.700;7.306;2023-09-18T14:00:13;4.63;;;1.83;;
11187;SDS011;5650;52.700;7.306;2023-09-18T14:02:41;3.97;;;1.92;;
11187;SDS011;5650;52.700;7.306;2023-09-18T14:05:09;5.30;;;2.03;;
11187;SDS011;5650;52.700;7.306;2023-09-18T14:07:37;4.63;;;2.00;;
11187;SDS011;5650;52.700;7.306;2023-09-18T14:10:08;3.65;;;1.90;;
11187;SDS011;5650;52.700;7.306;2023-09-18T14:12:36;6.03;;;1.98;;
11187;SDS011;5650;52.700;7.306;2023-09-18T14:15:04;2.88;;;1.85;;
11187;SDS011;5650;52.700;7.306;2023-09-18T14:17:34;7.38;;;2.28;;
11187;SDS011;5650;52.700;7.306;2023-09-18T14:20:05;3.78;;;2.05;;
11187;SDS011;5650;52.700;7.306;2023-09-18T14:22:35;2.72;;;1.80;;
11187;SDS011;5650;52.700;7.306;2023-09-18T14:25:06;3.75;;;1.70;;
11187;SDS011;5650;52.700;7.306;2023-09-18T14:27:48;4.43;;;1.92;;
11187;SDS011;5650;52.700;7.306;2023-09-18T14:30:18;3.75;;;1.70;;
11187;SDS011;5650;52.700;7.306;2023-09-18T14:32:56;4.10;;;2.10;;
11187;SDS011;5650;52.700;7.306;2023-09-18T14:35:25;3.35;;;1.90;;
11187;SDS011;5650;52.700;7.306;2023-09-18T14:37:53;5.25;;;1.90;;
11187;SDS011;5650;52.700;7.306;2023-09-18T14:40:26;5.18;;;2.20;;
11187;SDS011;5650;52.700;7.306;2023-09-18T14:42:59;6.65;;;2.50;;
11187;SDS011;5650;52.700;7.306;2023-09-18T14:45:26;5.45;;;2.38;;
11187;SDS011;5650;52.700;7.306;2023-09-18T14:48:17;5.50;;;1.92;;
11187;SDS011;5650;52.700;7.306;2023-09-18T14:50:53;4.70;;;2.13;;
11187;SDS011;5650;52.700;7.306;2023-09-18T14:53:20;4.32;;;2.17;;
11187;SDS011;5650;52.700;7.306;2023-09-18T14:55:48;6.95;;;2.40;;
11187;SDS011;5650;52.700;7.306;2023-09-18T14:58:15;2.90;;;1.90;;
11187;SDS011;5650;52.700;7.306;2023-09-18T15:00:43;6.22;;;2.42;;
11187;SDS011;5650;52.700;7.306;2023-09-18T15:03:12;5.70;;;2.10;;
11187;SDS011;5650;52.700;7.306;2023-09-18T15:05:39;5.50;;;2.28;;
11187;SDS011;5650;52.700;7.306;2023-09-18T15:08:06;3.63;;;2.30;;
11187;SDS011;5650;52.700;7.306;2023-09-18T15:10:33;5.25;;;2.05;;
11187;SDS011;5650;52.700;7.306;2023-09-18T15:13:01;4.03;;;2.30;;
11187;SDS011;5650;52.700;7.306;2023-09-18T15:15:30;4.85;;;2.17;;
11187;SDS011;5650;52.700;7.306;2023-09-18T15:17:57;5.05;;;2.58;;